createdAt,value
2022-09-02T00:01:34.101Z,101295.93
2022-09-02T00:06:37.904Z,101291.62
2022-09-02T00:11:42.697Z,101290.73
2022-09-02T00:16:50.783Z,101286.75
2022-09-02T00:21:55.958Z,101288.50
2022-09-02T00:26:59.190Z,101288.19
2022-09-02T00:32:03.176Z,101289.43
2022-09-02T00:37:06.418Z,101287.72
2022-09-02T00:42:12.274Z,101286.69
2022-09-02T00:47:15.606Z,101287.06
2022-09-02T00:52:23.550Z,101287.09
2022-09-02T00:57:31.711Z,101289.50
2022-09-02T01:02:37.453Z,101292.81
2022-09-02T01:07:42.539Z,101292.98
2022-09-02T01:12:46.838Z,101291.79
2022-09-02T01:17:52.740Z,101295.77
2022-09-02T01:22:57.722Z,101297.15
2022-09-02T01:28:05.929Z,101302.86
2022-09-02T01:33:10.096Z,101303.73
2022-09-02T01:38:13.690Z,101298.55
2022-09-02T01:43:20.164Z,101300.10
2022-09-02T01:48:25.294Z,101299.94
2022-09-02T01:53:30.427Z,101299.08
2022-09-02T01:58:33.878Z,101304.59
2022-09-02T02:03:37.999Z,101304.59
2022-09-02T02:08:42.557Z,101300.77
2022-09-02T02:13:46.078Z,101303.54
2022-09-02T02:18:50.028Z,101305.27
2022-09-02T02:23:53.835Z,101303.38
2022-09-02T02:28:57.128Z,101299.90
2022-09-02T02:34:02.583Z,101306.29
2022-09-02T02:39:09.679Z,101302.85
2022-09-02T02:44:13.477Z,101300.95
2022-09-02T02:49:17.016Z,101302.14
2022-09-02T02:54:21.248Z,101295.92
2022-09-02T02:59:25.703Z,101298.00
2022-09-02T03:04:29.648Z,101295.94
2022-09-02T03:09:33.751Z,101294.89
2022-09-02T03:14:36.901Z,101292.98
2022-09-02T03:19:46.609Z,101295.40
2022-09-02T03:24:50.396Z,101299.37
2022-09-02T03:29:53.770Z,101304.03
2022-09-02T03:34:57.248Z,101305.93
2022-09-02T03:40:02.152Z,101308.51
2022-09-02T03:45:14.197Z,101318.17
2022-09-02T03:50:19.501Z,101320.76
2022-09-02T03:55:24.147Z,101326.80
2022-09-02T04:00:32.924Z,101333.02
2022-09-02T04:05:39.345Z,101339.58
2022-09-02T04:10:42.779Z,101341.83
2022-09-02T04:15:48.651Z,101340.46
2022-09-02T04:20:52.808Z,101344.27
2022-09-02T04:25:58.040Z,101349.29
2022-09-02T04:31:05.456Z,101355.03
2022-09-02T04:36:15.404Z,101350.77
2022-09-02T04:47:32.627Z,101345.38
2022-09-02T04:52:46.121Z,101343.77
2022-09-02T04:57:50.407Z,101336.10
2022-09-02T05:02:55.115Z,101336.59
2022-09-02T05:07:58.801Z,101344.79
2022-09-02T05:13:02.639Z,101348.34
2022-09-02T05:18:06.284Z,101356.37
2022-09-02T05:23:10.865Z,101358.41
2022-09-02T05:28:17.349Z,101351.82
2022-09-02T05:33:22.298Z,101349.34
2022-09-02T05:38:25.777Z,101349.83
2022-09-02T05:43:29.465Z,101348.66
2022-09-02T05:48:53.034Z,101345.77
2022-09-02T05:53:58.135Z,101350.66
2022-09-02T05:59:01.951Z,101353.22
2022-09-02T06:04:06.508Z,101360.10
2022-09-02T06:09:13.063Z,101351.80
2022-09-02T06:14:20.247Z,101353.45
2022-09-02T06:19:25.263Z,101351.70
2022-09-02T06:24:33.147Z,101353.02
2022-09-02T06:29:42.110Z,101354.13
2022-09-02T06:34:45.842Z,101358.01
2022-09-02T06:39:49.103Z,101358.79
2022-09-02T06:44:58.094Z,101353.41
2022-09-02T06:50:02.249Z,101358.31
2022-09-02T06:55:08.378Z,101359.27
2022-09-02T07:00:13.447Z,101361.55
2022-09-02T07:05:17.880Z,101370.38
2022-09-02T07:10:22.852Z,101366.92
2022-09-02T07:15:28.301Z,101369.66
2022-09-02T07:20:32.309Z,101369.13
2022-09-02T07:25:41.004Z,101369.54
2022-09-02T07:30:44.754Z,101369.91
2022-09-02T07:35:52.531Z,101366.27
2022-09-02T07:40:57.117Z,101370.41
2022-09-02T07:46:02.557Z,101373.11
2022-09-02T07:51:07.467Z,101370.67
2022-09-02T07:56:13.114Z,101376.85
2022-09-02T08:01:19.998Z,101370.16
2022-09-02T08:06:34.690Z,101369.95
2022-09-02T08:11:39.186Z,101366.28
2022-09-02T08:16:43.321Z,101364.78
2022-09-02T08:21:46.525Z,101368.82
2022-09-02T08:26:50.091Z,101367.46
2022-09-02T08:31:54.167Z,101366.30
2022-09-02T08:36:58.227Z,101365.05
2022-09-02T08:42:08.278Z,101363.95
2022-09-02T08:47:16.247Z,101361.71
2022-09-02T08:52:27.846Z,101358.09
2022-09-02T08:57:31.996Z,101360.38
2022-09-02T09:02:49.322Z,101356.63
2022-09-02T09:08:01.874Z,101353.79
2022-09-02T09:13:20.003Z,101348.34
2022-09-02T09:18:30.483Z,101348.50
2022-09-02T09:23:36.136Z,101333.34
2022-09-02T09:28:42.845Z,101335.88
2022-09-02T09:34:00.368Z,101335.17
2022-09-02T09:39:16.110Z,101334.77
2022-09-02T09:44:41.524Z,101330.21
2022-09-02T09:49:45.057Z,101327.13
2022-09-02T09:55:04.304Z,101327.65
2022-09-02T10:00:25.662Z,101323.64
2022-09-02T10:05:33.422Z,101321.98
2022-09-02T10:10:36.669Z,101319.73
2022-09-02T10:15:47.990Z,101306.75
2022-09-02T10:21:16.237Z,101303.69
2022-09-02T10:26:33.162Z,101305.24
2022-09-02T10:31:46.474Z,101296.90
2022-09-02T10:37:08.246Z,101298.09
2022-09-02T10:42:20.061Z,101295.33
2022-09-02T10:47:32.093Z,101293.98
2022-09-02T10:52:50.190Z,101293.50
2022-09-02T10:58:00.014Z,101292.45
2022-09-02T11:03:12.233Z,101284.32
2022-09-02T11:08:27.268Z,101280.34
2022-09-02T11:13:44.533Z,101276.64
2022-09-02T11:18:58.165Z,101279.73
2022-09-02T11:24:06.231Z,101283.86
2022-09-02T11:29:17.761Z,101289.39
2022-09-02T11:34:34.704Z,101281.44
2022-09-02T11:40:11.575Z,101277.61
2022-09-02T11:45:20.288Z,101273.33
2022-09-02T11:50:39.486Z,101258.98
2022-09-02T11:55:48.481Z,101259.80
2022-09-02T12:01:24.375Z,101260.67
2022-09-02T12:06:32.821Z,101252.86
2022-09-02T12:11:46.484Z,101248.33
2022-09-02T12:17:04.180Z,101241.33
2022-09-02T12:22:33.004Z,101237.46
2022-09-02T12:27:36.859Z,101231.51
2022-09-02T12:33:08.774Z,101232.27
2022-09-02T12:38:30.350Z,101228.67
2022-09-02T12:43:47.370Z,101230.83
2022-09-02T12:49:00.944Z,101224.94
2022-09-02T12:54:06.078Z,101217.72
2022-09-02T12:59:10.176Z,101218.61
2022-09-02T13:04:30.151Z,101218.63
2022-09-02T13:09:52.176Z,101220.92
2022-09-02T13:15:04.675Z,101217.55
2022-09-02T13:20:41.237Z,101222.05
2022-09-02T13:26:19.137Z,101220.54
2022-09-02T13:31:35.535Z,101215.88
2022-09-02T13:36:42.949Z,101206.92
2022-09-02T13:41:47.192Z,101198.79
2022-09-02T13:46:52.212Z,101186.27
2022-09-02T13:51:56.783Z,101179.59
2022-09-02T13:57:03.467Z,101178.09
2022-09-02T14:02:25.897Z,101176.40
2022-09-02T14:07:36.436Z,101172.13
2022-09-02T14:12:41.274Z,101166.95
2022-09-02T14:17:44.461Z,101163.23
2022-09-02T14:22:54.380Z,101165.48
2022-09-02T14:28:00.108Z,101169.34
2022-09-02T14:33:25.122Z,101165.34
2022-09-02T14:38:32.904Z,101169.23
2022-09-02T14:43:44.139Z,101165.80
2022-09-02T14:48:55.662Z,101168.98
2022-09-02T14:53:58.835Z,101166.16
2022-09-02T14:59:02.158Z,101169.27
2022-09-02T15:04:06.107Z,101167.80
2022-09-02T15:09:09.634Z,101162.44
2022-09-02T15:14:12.644Z,101158.39
2022-09-02T15:19:16.006Z,101153.08
2022-09-02T15:24:20.412Z,101147.63
2022-09-02T15:29:28.821Z,101144.25
2022-09-02T15:34:36.487Z,101144.21
2022-09-02T15:39:40.315Z,101141.73
2022-09-02T15:44:43.859Z,101141.03
2022-09-02T15:49:46.961Z,101141.34
2022-09-02T15:54:50.052Z,101144.15
2022-09-02T15:59:53.438Z,101145.80
2022-09-02T16:04:56.665Z,101140.38
2022-09-02T16:10:03.479Z,101141.69
2022-09-02T16:15:09.030Z,101137.61
2022-09-02T16:20:12.818Z,101133.70
2022-09-02T16:25:16.114Z,101137.28
2022-09-02T16:30:20.664Z,101140.04
2022-09-02T16:35:24.101Z,101141.48
2022-09-02T16:40:27.737Z,101141.56
2022-09-02T16:45:31.348Z,101141.62
2022-09-02T16:50:34.595Z,101143.50
2022-09-02T16:55:41.827Z,101144.27
2022-09-02T17:00:45.446Z,101148.63
2022-09-02T17:05:48.593Z,101147.52
2022-09-02T17:10:51.774Z,101149.77
2022-09-02T17:15:54.946Z,101154.05
2022-09-02T17:21:16.982Z,101159.55
2022-09-02T17:26:22.302Z,101162.64
2022-09-02T17:31:27.458Z,101162.36
2022-09-02T17:36:32.205Z,101159.44
2022-09-02T17:41:54.506Z,101159.98
2022-09-02T17:46:57.972Z,101162.59
2022-09-02T17:52:01.951Z,101163.28
2022-09-02T17:57:19.666Z,101163.97
2022-09-02T18:02:37.409Z,101167.66
2022-09-02T18:07:48.763Z,101169.88
2022-09-02T18:12:56.144Z,101168.90
2022-09-02T18:18:02.441Z,101175.39
2022-09-02T18:23:30.576Z,101175.49
2022-09-02T18:28:45.633Z,101177.84
2022-09-02T18:34:07.471Z,101186.89
2022-09-02T18:39:27.259Z,101184.97
2022-09-02T18:44:39.145Z,101184.91
2022-09-02T18:49:44.760Z,101184.56
2022-09-02T18:54:53.733Z,101188.48
2022-09-02T19:00:04.113Z,101194.54
2022-09-02T19:05:11.238Z,101191.04
2022-09-02T19:10:14.675Z,101187.60
2022-09-02T19:15:18.553Z,101185.59
2022-09-02T19:20:23.114Z,101189.67
2022-09-02T19:25:30.363Z,101190.13
2022-09-02T19:30:35.726Z,101194.39
2022-09-02T19:35:45.761Z,101197.48
2022-09-02T19:40:49.907Z,101199.92
2022-09-02T19:45:55.613Z,101203.41
2022-09-02T19:50:58.849Z,101200.05
2022-09-02T19:56:02.962Z,101205.88
2022-09-02T20:01:07.160Z,101205.81
2022-09-02T20:06:12.824Z,101205.47
2022-09-02T20:11:17.271Z,101205.34
2022-09-02T20:16:23.358Z,101207.08
2022-09-02T20:21:29.968Z,101203.42
2022-09-02T20:26:49.428Z,101206.64
2022-09-02T20:32:04.035Z,101206.52
2022-09-02T20:37:19.332Z,101206.74
2022-09-02T20:42:40.417Z,101205.13
2022-09-02T20:47:54.880Z,101206.61
2022-09-02T20:53:16.068Z,101206.73
2022-09-02T20:58:31.157Z,101212.81
2022-09-02T21:03:49.569Z,101216.67
2022-09-02T21:09:01.380Z,101219.91
2022-09-02T21:14:13.023Z,101223.15
2022-09-02T21:19:29.886Z,101223.98
2022-09-02T21:24:39.421Z,101228.15
2022-09-02T21:29:50.883Z,101223.23
2022-09-02T21:34:57.869Z,101224.38
2022-09-02T21:40:06.728Z,101223.55
2022-09-02T21:45:22.668Z,101223.55
2022-09-02T21:50:37.128Z,101226.93
2022-09-02T21:55:53.712Z,101235.92
2022-09-02T22:01:04.586Z,101227.90
2022-09-02T22:06:16.441Z,101226.63
2022-09-02T22:11:31.998Z,101227.44
2022-09-02T22:16:48.098Z,101228.55
2022-09-02T22:21:56.094Z,101225.66
2022-09-02T22:27:05.835Z,101229.19
2022-09-02T22:32:13.542Z,101232.93
2022-09-02T22:37:23.800Z,101231.23
2022-09-02T22:42:33.661Z,101230.38
2022-09-02T22:48:18.725Z,101227.27
2022-09-02T22:53:22.155Z,101225.08
2022-09-02T22:59:15.241Z,101228.13
2022-09-02T23:04:34.085Z,101232.70
2022-09-02T23:10:27.002Z,101234.28
2022-09-02T23:15:40.958Z,101230.88
2022-09-02T23:20:52.942Z,101230.42
2022-09-02T23:26:10.621Z,101233.63
2022-09-02T23:31:31.184Z,101234.72
2022-09-02T23:36:47.445Z,101231.48
2022-09-02T23:41:56.866Z,101236.58
2022-09-02T23:47:19.454Z,101240.63
2022-09-02T23:52:34.597Z,101241.02
2022-09-02T23:58:03.121Z,101240.52
